createdAt,value
2023-12-16T00:01:45.262Z,22.37
2023-12-16T00:04:15.989Z,22.36
2023-12-16T00:06:46.540Z,22.34
2023-12-16T00:09:16.881Z,22.36
2023-12-16T00:11:47.307Z,22.35
2023-12-16T00:14:17.751Z,22.36
2023-12-16T00:16:48.194Z,22.36
2023-12-16T00:19:18.681Z,22.35
2023-12-16T00:21:49.041Z,22.36
2023-12-16T00:24:19.391Z,22.34
2023-12-16T00:26:49.642Z,22.35
2023-12-16T00:29:19.884Z,22.34
2023-12-16T00:31:50.185Z,22.35
2023-12-16T00:34:20.711Z,22.35
2023-12-16T00:36:51.118Z,22.35
2023-12-16T00:39:21.473Z,22.35
2023-12-16T00:41:51.806Z,22.35
2023-12-16T00:44:22.047Z,22.34
2023-12-16T00:46:52.528Z,22.34
2023-12-16T00:49:22.870Z,22.34
2023-12-16T00:51:53.270Z,22.34
2023-12-16T00:54:23.572Z,22.35
2023-12-16T00:56:54.502Z,22.35
2023-12-16T00:59:27.312Z,22.34
2023-12-16T01:01:57.778Z,22.34
2023-12-16T01:04:28.109Z,22.35
2023-12-16T01:06:58.423Z,22.35
2023-12-16T01:09:28.680Z,22.35
2023-12-16T01:11:58.909Z,22.34
2023-12-16T01:14:29.238Z,22.33
2023-12-16T01:16:59.564Z,22.33
2023-12-16T01:19:30.072Z,22.33
2023-12-16T01:22:00.492Z,22.32
2023-12-16T01:24:33.445Z,22.33
2023-12-16T01:27:03.894Z,22.32
2023-12-16T01:29:34.266Z,22.31
2023-12-16T01:32:04.922Z,22.31
2023-12-16T01:34:35.215Z,22.30
2023-12-16T01:37:05.658Z,22.29
2023-12-16T01:39:35.983Z,22.30
2023-12-16T01:42:06.762Z,22.29
2023-12-16T01:44:37.338Z,22.28
2023-12-16T01:47:08.058Z,22.29
2023-12-16T01:49:38.978Z,22.29
2023-12-16T01:52:09.506Z,22.28
2023-12-16T01:54:39.798Z,22.28
2023-12-16T01:57:10.039Z,22.29
2023-12-16T01:59:40.591Z,22.29
2023-12-16T02:02:10.865Z,22.29
2023-12-16T02:04:41.175Z,22.29
2023-12-16T02:07:11.522Z,22.29
2023-12-16T02:09:41.872Z,22.30
2023-12-16T02:12:12.535Z,22.30
2023-12-16T02:14:42.845Z,22.30
2023-12-16T02:17:14.465Z,22.29
2023-12-16T02:19:45.252Z,22.30
2023-12-16T02:22:15.646Z,22.30
2023-12-16T02:24:45.913Z,22.30
2023-12-16T02:27:16.484Z,22.30
2023-12-16T02:29:47.198Z,22.30
2023-12-16T02:32:18.438Z,22.30
2023-12-16T02:34:49.472Z,22.30
2023-12-16T02:37:19.970Z,22.30
2023-12-16T02:39:50.523Z,22.30
2023-12-16T02:42:21.011Z,22.30
2023-12-16T02:44:51.262Z,22.29
2023-12-16T02:47:21.484Z,22.30
2023-12-16T02:49:51.812Z,22.29
2023-12-16T02:52:22.224Z,22.31
2023-12-16T02:54:52.602Z,22.30
2023-12-16T02:57:22.893Z,22.31
2023-12-16T02:59:53.289Z,22.31
2023-12-16T03:02:23.537Z,22.31
2023-12-16T03:04:53.890Z,22.32
2023-12-16T03:07:24.323Z,22.32
2023-12-16T03:09:54.618Z,22.32
2023-12-16T03:12:25.677Z,22.32
2023-12-16T03:14:56.085Z,22.32
2023-12-16T03:17:26.556Z,22.33
2023-12-16T03:19:57.147Z,22.33
2023-12-16T03:22:27.441Z,22.33
2023-12-16T03:24:57.745Z,22.33
2023-12-16T03:27:27.993Z,22.32
2023-12-16T03:29:58.434Z,22.33
2023-12-16T03:32:28.667Z,22.33
2023-12-16T03:34:58.950Z,22.33
2023-12-16T03:37:29.414Z,22.33
2023-12-16T03:39:59.857Z,22.33
2023-12-16T03:42:30.246Z,22.32
2023-12-16T03:45:00.616Z,22.32
2023-12-16T03:47:31.127Z,22.33
2023-12-16T03:50:01.422Z,22.32
2023-12-16T03:52:31.745Z,22.32
2023-12-16T03:55:02.295Z,22.32
2023-12-16T03:57:33.941Z,22.33
2023-12-16T04:00:04.426Z,22.34
2023-12-16T04:02:34.854Z,22.34
2023-12-16T04:05:05.549Z,22.34
2023-12-16T04:07:36.035Z,22.34
2023-12-16T04:10:08.057Z,22.34
2023-12-16T04:12:38.378Z,22.34
2023-12-16T04:15:12.021Z,22.34
2023-12-16T04:17:42.782Z,22.34
2023-12-16T04:20:13.903Z,22.34
2023-12-16T04:22:44.314Z,22.34
2023-12-16T04:25:14.736Z,22.34
2023-12-16T04:27:45.036Z,22.34
2023-12-16T04:30:15.878Z,22.34
2023-12-16T04:32:46.279Z,22.33
2023-12-16T04:35:16.674Z,22.33
2023-12-16T04:37:46.948Z,22.33
2023-12-16T04:40:17.653Z,22.33
2023-12-16T04:42:47.947Z,22.32
2023-12-16T04:45:18.377Z,22.32
2023-12-16T04:47:48.811Z,22.32
2023-12-16T04:50:19.452Z,22.32
2023-12-16T04:52:49.685Z,22.32
2023-12-16T04:55:20.042Z,22.31
2023-12-16T04:57:50.348Z,22.31
2023-12-16T05:00:21.010Z,22.32
2023-12-16T05:02:51.404Z,22.31
2023-12-16T05:05:21.648Z,22.31
2023-12-16T05:07:51.901Z,22.31
2023-12-16T05:10:22.224Z,22.31
2023-12-16T05:12:52.528Z,22.30
2023-12-16T05:15:22.800Z,22.30
2023-12-16T05:17:53.111Z,22.30
2023-12-16T05:20:23.783Z,22.30
2023-12-16T05:22:54.088Z,22.29
2023-12-16T05:25:24.363Z,22.29
2023-12-16T05:27:54.726Z,22.29
2023-12-16T05:30:25.059Z,22.29
2023-12-16T05:32:55.538Z,22.28
2023-12-16T05:35:25.916Z,22.29
2023-12-16T05:37:56.301Z,22.28
2023-12-16T05:40:26.687Z,22.29
2023-12-16T05:42:57.049Z,22.29
2023-12-16T05:45:27.305Z,22.29
2023-12-16T05:47:57.696Z,22.29
2023-12-16T05:50:28.155Z,22.29
2023-12-16T05:52:58.514Z,22.28
2023-12-16T05:55:29.499Z,22.28
2023-12-16T05:57:59.812Z,22.28
2023-12-16T06:00:30.283Z,22.28
2023-12-16T06:03:00.639Z,22.28
2023-12-16T06:05:31.082Z,22.26
2023-12-16T06:08:01.376Z,22.27
2023-12-16T06:10:32.105Z,22.27
2023-12-16T06:13:02.484Z,22.27
2023-12-16T06:15:32.842Z,22.27
2023-12-16T06:18:05.269Z,22.26
2023-12-16T06:20:36.100Z,22.26
2023-12-16T06:23:06.353Z,22.26
2023-12-16T06:25:36.767Z,22.26
2023-12-16T06:28:07.194Z,22.26
2023-12-16T06:30:38.363Z,22.26
2023-12-16T06:33:08.781Z,22.26
2023-12-16T06:35:39.223Z,22.26
2023-12-16T06:38:09.485Z,22.26
2023-12-16T06:40:39.851Z,22.26
2023-12-16T06:43:10.149Z,22.26
2023-12-16T06:45:40.527Z,22.27
2023-12-16T06:48:10.827Z,22.27
2023-12-16T06:50:41.278Z,22.27
2023-12-16T06:53:12.661Z,22.27
2023-12-16T06:55:43.053Z,22.27
2023-12-16T06:58:13.455Z,22.27
2023-12-16T07:00:43.915Z,22.27
2023-12-16T07:03:14.477Z,22.27
2023-12-16T07:05:44.981Z,22.26
2023-12-16T07:08:15.707Z,22.27
2023-12-16T07:10:46.488Z,22.27
2023-12-16T07:13:16.822Z,22.27
2023-12-16T07:15:47.161Z,22.26
2023-12-16T07:18:17.512Z,22.26
2023-12-16T07:20:47.924Z,22.26
2023-12-16T07:23:18.198Z,22.27
2023-12-16T07:25:48.760Z,22.26
2023-12-16T07:28:19.071Z,22.26
2023-12-16T07:30:49.629Z,22.26
2023-12-16T07:33:19.996Z,22.26
2023-12-16T07:35:53.304Z,22.26
2023-12-16T07:38:25.188Z,22.27
2023-12-16T07:40:55.889Z,22.26
2023-12-16T07:43:26.404Z,22.27
2023-12-16T07:45:56.732Z,22.26
2023-12-16T07:48:27.186Z,22.26
2023-12-16T07:50:57.724Z,22.26
2023-12-16T07:53:28.122Z,22.26
2023-12-16T07:55:58.426Z,22.26
2023-12-16T07:58:28.726Z,22.26
2023-12-16T08:00:59.214Z,22.26
2023-12-16T08:03:29.542Z,22.27
2023-12-16T08:05:59.904Z,22.26
2023-12-16T08:08:30.196Z,22.27
2023-12-16T08:11:00.434Z,22.27
2023-12-16T08:13:31.197Z,22.27
2023-12-16T08:16:01.824Z,22.27
2023-12-16T08:18:32.540Z,22.27
2023-12-16T08:21:03.430Z,22.27
2023-12-16T08:23:33.702Z,22.27
2023-12-16T08:26:04.596Z,22.27
2023-12-16T08:28:34.965Z,22.27
2023-12-16T08:31:05.981Z,22.27
2023-12-16T08:33:36.414Z,22.27
2023-12-16T08:36:08.607Z,22.27
2023-12-16T08:38:40.686Z,22.27
2023-12-16T08:41:11.369Z,22.27
2023-12-16T08:43:43.101Z,22.27
2023-12-16T08:46:13.827Z,22.28
2023-12-16T08:48:44.292Z,22.29
2023-12-16T08:51:14.555Z,22.30
2023-12-16T08:53:44.925Z,22.30
2023-12-16T08:56:15.269Z,22.32
2023-12-16T08:58:45.729Z,22.32
2023-12-16T09:01:16.263Z,22.33
2023-12-16T09:03:46.861Z,22.34
2023-12-16T09:06:17.314Z,22.35
2023-12-16T09:08:47.585Z,22.35
2023-12-16T09:11:18.007Z,22.36
2023-12-16T09:13:48.326Z,22.36
2023-12-16T09:16:19.139Z,22.37
2023-12-16T09:18:49.511Z,22.36
2023-12-16T09:21:20.648Z,22.35
2023-12-16T09:23:50.891Z,22.34
2023-12-16T09:26:22.460Z,22.35
2023-12-16T09:28:53.017Z,22.35
2023-12-16T09:31:23.476Z,22.36
2023-12-16T09:33:54.014Z,22.36
2023-12-16T09:36:28.206Z,22.37
2023-12-16T09:38:59.072Z,22.37
2023-12-16T09:41:30.262Z,22.37
2023-12-16T09:44:01.090Z,22.37
2023-12-16T09:46:32.887Z,22.37
2023-12-16T09:49:03.778Z,22.37
2023-12-16T09:51:34.098Z,22.37
2023-12-16T09:54:04.436Z,22.38
2023-12-16T09:56:34.767Z,22.38
2023-12-16T09:59:05.049Z,22.38
2023-12-16T10:01:35.472Z,22.39
2023-12-16T10:04:06.131Z,22.39
2023-12-16T10:06:36.402Z,22.40
2023-12-16T10:09:06.654Z,22.40
2023-12-16T10:11:42.756Z,22.40
2023-12-16T10:14:14.201Z,22.40
2023-12-16T10:16:48.034Z,22.39
2023-12-16T10:19:19.095Z,22.40
2023-12-16T10:21:49.873Z,22.41
2023-12-16T10:24:20.282Z,22.42
2023-12-16T10:26:50.657Z,22.46
2023-12-16T10:29:22.713Z,22.48
2023-12-16T10:31:53.229Z,22.51
2023-12-16T10:34:23.635Z,22.54
2023-12-16T10:36:53.934Z,22.57
2023-12-16T10:39:24.261Z,22.59
2023-12-16T10:41:54.522Z,22.60
2023-12-16T10:44:24.771Z,22.60
2023-12-16T10:46:55.954Z,22.60
2023-12-16T10:49:29.573Z,22.60
2023-12-16T10:52:04.873Z,22.59
2023-12-16T10:54:38.456Z,22.57
2023-12-16T10:57:27.001Z,22.58
2023-12-16T11:00:05.794Z,22.58
2023-12-16T11:02:40.337Z,22.59
2023-12-16T11:05:16.019Z,22.60
2023-12-16T11:07:46.441Z,22.60
2023-12-16T11:10:17.278Z,22.60
2023-12-16T11:12:47.642Z,22.61
2023-12-16T11:15:18.515Z,22.63
2023-12-16T11:17:53.565Z,22.64
2023-12-16T11:20:24.385Z,22.64
2023-12-16T11:22:54.869Z,22.63
2023-12-16T11:25:25.323Z,22.63
2023-12-16T11:27:55.741Z,22.63
2023-12-16T11:30:26.040Z,22.63
2023-12-16T11:32:56.954Z,22.63
2023-12-16T11:35:50.000Z,22.62
2023-12-16T11:38:42.929Z,22.62
2023-12-16T11:41:34.018Z,22.62
2023-12-16T11:44:04.450Z,22.60
2023-12-16T11:46:43.050Z,22.61
2023-12-16T11:49:15.817Z,22.61
2023-12-16T11:51:46.404Z,22.60
2023-12-16T11:54:16.688Z,22.60
2023-12-16T11:56:46.976Z,22.60
2023-12-16T11:59:17.276Z,22.59
2023-12-16T12:01:47.766Z,22.58
2023-12-16T12:04:18.185Z,22.58
2023-12-16T12:06:48.525Z,22.59
2023-12-16T12:09:18.977Z,22.58
2023-12-16T12:11:49.593Z,22.58
2023-12-16T12:14:19.883Z,22.58
2023-12-16T12:16:50.627Z,22.58
2023-12-16T12:19:21.072Z,22.59
2023-12-16T12:21:52.890Z,22.59
2023-12-16T12:24:23.765Z,22.58
2023-12-16T12:26:54.797Z,22.59
2023-12-16T12:29:25.114Z,22.58
2023-12-16T12:31:55.444Z,22.58
2023-12-16T12:34:25.795Z,22.58
2023-12-16T12:36:58.690Z,22.57
2023-12-16T12:39:28.966Z,22.57
2023-12-16T12:42:06.605Z,22.57
2023-12-16T12:44:38.696Z,22.58
2023-12-16T12:47:10.098Z,22.57
2023-12-16T12:49:41.357Z,22.56
2023-12-16T12:52:11.781Z,22.56
2023-12-16T12:54:48.334Z,22.56
2023-12-16T12:57:22.869Z,22.55
2023-12-16T13:00:00.578Z,22.54
2023-12-16T13:02:34.204Z,22.53
2023-12-16T13:05:04.822Z,22.52
2023-12-16T13:07:35.094Z,22.53
2023-12-16T13:10:06.151Z,22.52
2023-12-16T13:12:36.462Z,22.52
2023-12-16T13:15:08.226Z,22.50
2023-12-16T13:17:39.374Z,22.50
2023-12-16T13:20:11.289Z,22.50
2023-12-16T13:22:42.734Z,22.50
2023-12-16T13:25:13.202Z,22.49
2023-12-16T13:27:43.594Z,22.49
2023-12-16T13:30:15.063Z,22.49
2023-12-16T13:32:45.485Z,22.49
2023-12-16T13:35:15.934Z,22.49
2023-12-16T13:37:46.174Z,22.47
2023-12-16T13:40:16.452Z,22.47
2023-12-16T13:42:46.840Z,22.46
2023-12-16T13:45:17.584Z,22.45
2023-12-16T13:47:47.984Z,22.44
2023-12-16T13:50:18.320Z,22.43
2023-12-16T13:52:50.603Z,22.43
2023-12-16T13:55:20.849Z,22.43
2023-12-16T13:57:51.205Z,22.43
2023-12-16T14:00:22.875Z,22.42
2023-12-16T14:02:53.284Z,22.42
2023-12-16T14:05:23.764Z,22.42
2023-12-16T14:07:54.021Z,22.42
2023-12-16T14:10:24.520Z,22.41
2023-12-16T14:12:54.805Z,22.41
2023-12-16T14:15:25.064Z,22.41
2023-12-16T14:17:55.399Z,22.40
2023-12-16T14:20:25.775Z,22.40
2023-12-16T14:22:56.022Z,22.40
2023-12-16T14:25:27.014Z,22.39
2023-12-16T14:27:57.287Z,22.39
2023-12-16T14:30:27.640Z,22.39
2023-12-16T14:32:58.166Z,22.39
2023-12-16T14:35:28.588Z,22.38
2023-12-16T14:37:58.846Z,22.38
2023-12-16T14:40:29.337Z,22.37
2023-12-16T14:42:59.636Z,22.36
2023-12-16T14:45:30.193Z,22.36
2023-12-16T14:48:00.598Z,22.35
2023-12-16T14:50:30.953Z,22.34
2023-12-16T14:53:01.273Z,22.35
2023-12-16T14:55:31.708Z,22.34
2023-12-16T14:58:02.538Z,22.33
2023-12-16T15:00:32.880Z,22.33
2023-12-16T15:03:03.187Z,22.32
2023-12-16T15:05:33.721Z,22.31
2023-12-16T15:08:04.056Z,22.31
2023-12-16T15:10:34.393Z,22.31
2023-12-16T15:13:07.879Z,22.31
2023-12-16T15:15:39.389Z,22.31
2023-12-16T15:18:11.002Z,22.30
2023-12-16T15:20:41.376Z,22.29
2023-12-16T15:23:11.668Z,22.29
2023-12-16T15:25:42.170Z,22.28
2023-12-16T15:28:12.452Z,22.28
2023-12-16T15:30:42.741Z,22.28
2023-12-16T15:33:13.140Z,22.29
2023-12-16T15:35:43.602Z,22.29
2023-12-16T15:38:14.029Z,22.29
2023-12-16T15:40:44.372Z,22.29
2023-12-16T15:43:14.622Z,22.29
2023-12-16T15:45:45.110Z,22.29
2023-12-16T15:48:15.491Z,22.28
2023-12-16T15:50:45.908Z,22.27
2023-12-16T15:53:16.385Z,22.28
2023-12-16T15:55:46.829Z,22.27
2023-12-16T15:58:17.217Z,22.27
2023-12-16T16:00:47.484Z,22.27
2023-12-16T16:03:19.257Z,22.27
2023-12-16T16:05:51.106Z,22.27
2023-12-16T16:08:21.791Z,22.26
2023-12-16T16:10:53.046Z,22.26
2023-12-16T16:13:23.329Z,22.25
2023-12-16T16:15:53.726Z,22.25
2023-12-16T16:18:24.058Z,22.26
2023-12-16T16:20:54.422Z,22.27
2023-12-16T16:23:24.956Z,22.25
2023-12-16T16:25:55.303Z,22.26
2023-12-16T16:28:25.602Z,22.26
2023-12-16T16:30:55.909Z,22.27
2023-12-16T16:33:26.305Z,22.27
2023-12-16T16:35:56.668Z,22.27
2023-12-16T16:38:27.332Z,22.27
2023-12-16T16:40:57.574Z,22.28
2023-12-16T16:43:27.852Z,22.28
2023-12-16T16:45:58.162Z,22.28
2023-12-16T16:48:28.677Z,22.28
2023-12-16T16:50:59.065Z,22.28
2023-12-16T16:53:29.338Z,22.29
2023-12-16T16:55:59.662Z,22.29
2023-12-16T16:58:29.966Z,22.29
2023-12-16T17:01:00.298Z,22.29
2023-12-16T17:03:35.810Z,22.29
2023-12-16T17:06:06.980Z,22.29
2023-12-16T17:08:37.728Z,22.29
2023-12-16T17:11:08.257Z,22.29
2023-12-16T17:13:38.495Z,22.29
2023-12-16T17:16:13.826Z,22.29
2023-12-16T17:18:44.315Z,22.29
2023-12-16T17:21:14.616Z,22.29
2023-12-16T17:23:44.909Z,22.29
2023-12-16T17:26:15.247Z,22.30
2023-12-16T17:28:45.500Z,22.30
2023-12-16T17:31:15.957Z,22.30
2023-12-16T17:33:46.350Z,22.31
2023-12-16T17:36:16.928Z,22.31
2023-12-16T17:38:47.223Z,22.30
2023-12-16T17:41:17.615Z,22.30
2023-12-16T17:43:47.873Z,22.30
2023-12-16T17:46:18.293Z,22.29
2023-12-16T17:48:48.811Z,22.29
2023-12-16T17:51:19.537Z,22.29
2023-12-16T17:53:50.053Z,22.30
2023-12-16T17:56:20.318Z,22.30
2023-12-16T17:58:50.601Z,22.30
2023-12-16T18:01:21.059Z,22.30
2023-12-16T18:03:52.415Z,22.31
2023-12-16T18:06:23.004Z,22.30
2023-12-16T18:08:53.400Z,22.30
2023-12-16T18:11:23.704Z,22.31
2023-12-16T18:13:54.176Z,22.31
2023-12-16T18:16:24.572Z,22.31
2023-12-16T18:18:54.968Z,22.31
2023-12-16T18:21:25.351Z,22.32
2023-12-16T18:23:56.683Z,22.32
2023-12-16T18:26:27.518Z,22.32
2023-12-16T18:28:57.836Z,22.32
2023-12-16T18:31:28.208Z,22.32
2023-12-16T18:33:58.670Z,22.33
2023-12-16T18:36:29.921Z,22.33
2023-12-16T18:39:00.251Z,22.32
2023-12-16T18:41:30.593Z,22.33
2023-12-16T18:44:00.875Z,22.33
2023-12-16T18:46:33.437Z,22.33
2023-12-16T18:49:03.961Z,22.33
2023-12-16T18:51:34.385Z,22.33
2023-12-16T18:54:04.989Z,22.33
2023-12-16T18:56:35.303Z,22.33
2023-12-16T18:59:05.621Z,22.33
2023-12-16T19:01:36.953Z,22.34
2023-12-16T19:04:07.517Z,22.33
2023-12-16T19:06:38.020Z,22.34
2023-12-16T19:09:10.001Z,22.34
2023-12-16T19:11:40.889Z,22.34
2023-12-16T19:14:11.632Z,22.34
2023-12-16T19:16:41.916Z,22.34
2023-12-16T19:19:12.271Z,22.34
2023-12-16T19:21:42.603Z,22.34
2023-12-16T19:24:14.750Z,22.34
2023-12-16T19:26:45.263Z,22.34
2023-12-16T19:29:15.691Z,22.35
2023-12-16T19:31:45.985Z,22.34
2023-12-16T19:34:16.487Z,22.35
2023-12-16T19:36:48.682Z,22.35
2023-12-16T19:39:22.649Z,22.35
2023-12-16T19:41:53.715Z,22.35
2023-12-16T19:44:24.249Z,22.35
2023-12-16T19:46:54.564Z,22.35
2023-12-16T19:49:25.104Z,22.33
2023-12-16T19:51:55.572Z,22.33
2023-12-16T19:54:26.531Z,22.33
2023-12-16T19:56:56.838Z,22.33
2023-12-16T19:59:27.504Z,22.35
2023-12-16T20:01:57.782Z,22.37
2023-12-16T20:04:28.075Z,22.39
2023-12-16T20:06:58.396Z,22.41
2023-12-16T20:09:28.701Z,22.44
2023-12-16T20:11:58.983Z,22.48
2023-12-16T20:14:29.560Z,22.53
2023-12-16T20:16:59.810Z,22.57
2023-12-16T20:19:30.210Z,22.60
2023-12-16T20:22:02.821Z,22.63
2023-12-16T20:24:33.113Z,22.65
2023-12-16T20:27:03.470Z,22.64
2023-12-16T20:29:33.761Z,22.65
2023-12-16T20:32:04.018Z,22.65
2023-12-16T20:34:34.401Z,22.63
2023-12-16T20:37:06.505Z,22.62
2023-12-16T20:39:53.916Z,22.61
2023-12-16T20:42:24.172Z,22.59
2023-12-16T20:44:54.480Z,22.58
2023-12-16T20:47:24.747Z,22.57
2023-12-16T20:49:55.102Z,22.57
2023-12-16T20:52:26.640Z,22.57
2023-12-16T20:54:56.899Z,22.56
2023-12-16T20:57:27.136Z,22.55
2023-12-16T20:59:57.408Z,22.55
2023-12-16T21:02:27.656Z,22.55
2023-12-16T21:04:57.922Z,22.54
2023-12-16T21:07:28.615Z,22.54
2023-12-16T21:09:58.881Z,22.53
2023-12-16T21:12:29.186Z,22.52
2023-12-16T21:14:59.761Z,22.52
2023-12-16T21:17:30.389Z,22.52
2023-12-16T21:20:01.125Z,22.52
2023-12-16T21:22:31.519Z,22.53
2023-12-16T21:25:01.788Z,22.52
2023-12-16T21:27:32.134Z,22.51
2023-12-16T21:30:02.535Z,22.51
2023-12-16T21:32:33.074Z,22.51
2023-12-16T21:35:03.738Z,22.51
2023-12-16T21:37:34.139Z,22.50
2023-12-16T21:40:04.683Z,22.50
2023-12-16T21:42:34.919Z,22.51
2023-12-16T21:45:05.861Z,22.50
2023-12-16T21:47:36.523Z,22.48
2023-12-16T21:50:07.946Z,22.49
2023-12-16T21:52:38.206Z,22.49
2023-12-16T21:55:10.270Z,22.49
2023-12-16T21:57:40.736Z,22.49
2023-12-16T22:00:13.010Z,22.48
2023-12-16T22:02:43.328Z,22.48
2023-12-16T22:05:15.435Z,22.48
2023-12-16T22:07:45.752Z,22.47
2023-12-16T22:10:16.235Z,22.47
2023-12-16T22:12:46.559Z,22.46
2023-12-16T22:15:17.087Z,22.46
2023-12-16T22:17:47.452Z,22.46
2023-12-16T22:20:18.578Z,22.45
2023-12-16T22:22:49.001Z,22.45
2023-12-16T22:25:19.387Z,22.45
2023-12-16T22:27:49.727Z,22.45
2023-12-16T22:30:20.097Z,22.45
2023-12-16T22:32:50.406Z,22.45
2023-12-16T22:35:24.218Z,22.44
2023-12-16T22:37:55.234Z,22.44
2023-12-16T22:40:25.625Z,22.44
2023-12-16T22:42:55.846Z,22.44
2023-12-16T22:45:26.327Z,22.44
2023-12-16T22:47:56.875Z,22.43
2023-12-16T22:50:27.513Z,22.43
2023-12-16T22:52:57.977Z,22.42
2023-12-16T22:55:28.274Z,22.42
2023-12-16T22:57:58.542Z,22.42
2023-12-16T23:00:31.913Z,22.42
2023-12-16T23:03:02.599Z,22.42
2023-12-16T23:05:33.381Z,22.42
2023-12-16T23:08:03.891Z,22.42
2023-12-16T23:10:34.212Z,22.42
2023-12-16T23:13:04.454Z,22.42
2023-12-16T23:15:34.753Z,22.42
2023-12-16T23:18:05.751Z,22.41
2023-12-16T23:20:36.097Z,22.41
2023-12-16T23:23:06.329Z,22.42
2023-12-16T23:25:36.552Z,22.42
2023-12-16T23:28:07.208Z,22.41
2023-12-16T23:30:37.628Z,22.40
2023-12-16T23:33:08.066Z,22.39
2023-12-16T23:35:38.513Z,22.39
2023-12-16T23:38:08.754Z,22.38
2023-12-16T23:40:39.288Z,22.38
2023-12-16T23:43:09.510Z,22.38
2023-12-16T23:45:39.748Z,22.38
2023-12-16T23:48:10.350Z,22.37
2023-12-16T23:50:40.729Z,22.37
2023-12-16T23:53:11.062Z,22.37
2023-12-16T23:55:41.290Z,22.37
2023-12-16T23:58:11.686Z,22.37
